createdAt,value
2023-06-17T00:00:09.635Z,75.40
2023-06-17T00:02:37.887Z,75.40
2023-06-17T00:05:08.040Z,75.60
2023-06-17T00:07:36.009Z,75.70
2023-06-17T00:10:03.951Z,75.50
2023-06-17T00:12:33.066Z,75.40
2023-06-17T00:15:02.651Z,75.60
2023-06-17T00:17:31.924Z,75.90
2023-06-17T00:20:00.105Z,76.50
2023-06-17T00:22:30.888Z,76.50
2023-06-17T00:24:58.822Z,76.50
2023-06-17T00:27:26.787Z,76.60
2023-06-17T00:29:54.977Z,76.50
2023-06-17T00:32:22.863Z,76.60
2023-06-17T00:34:50.856Z,77.00
2023-06-17T00:37:18.693Z,76.90
2023-06-17T00:39:47.956Z,76.60
2023-06-17T00:42:16.125Z,76.30
2023-06-17T00:44:44.097Z,76.20
2023-06-17T00:47:14.018Z,76.00
2023-06-17T00:49:42.899Z,75.80
2023-06-17T00:54:44.306Z,75.80
2023-06-17T00:57:15.125Z,76.20
2023-06-17T00:59:45.030Z,76.50
2023-06-17T01:02:14.770Z,77.10
2023-06-17T01:04:44.517Z,77.60
2023-06-17T01:07:24.424Z,77.80
2023-06-17T01:09:58.880Z,77.90
2023-06-17T01:12:30.267Z,77.80
2023-06-17T01:15:02.325Z,77.60
2023-06-17T01:17:31.202Z,77.50
2023-06-17T01:20:00.374Z,77.40
2023-06-17T01:22:29.420Z,77.40
2023-06-17T01:25:02.252Z,77.40
2023-06-17T01:27:30.691Z,77.30
2023-06-17T01:29:59.639Z,77.30
2023-06-17T01:32:27.723Z,77.50
2023-06-17T01:35:01.636Z,77.60
2023-06-17T01:37:34.030Z,77.70
2023-06-17T01:40:05.163Z,77.70
2023-06-17T01:42:33.583Z,77.90
2023-06-17T01:45:06.331Z,77.90
2023-06-17T01:47:34.764Z,77.80
2023-06-17T01:50:04.597Z,77.60
2023-06-17T01:52:33.135Z,77.70
2023-06-17T01:55:02.891Z,77.70
2023-06-17T01:57:31.479Z,77.60
2023-06-17T01:59:59.561Z,77.60
2023-06-17T02:02:27.682Z,77.70
2023-06-17T02:04:55.789Z,77.80
2023-06-17T02:07:26.670Z,77.80
2023-06-17T02:09:54.830Z,77.80
2023-06-17T02:12:24.131Z,77.80
2023-06-17T02:14:52.047Z,77.80
2023-06-17T02:17:19.922Z,77.80
2023-06-17T02:19:47.812Z,77.90
2023-06-17T02:22:15.794Z,77.90
2023-06-17T02:24:43.816Z,77.80
2023-06-17T02:27:11.812Z,78.00
2023-06-17T02:29:40.989Z,78.40
2023-06-17T02:32:10.829Z,78.60
2023-06-17T02:34:39.235Z,78.80
2023-06-17T02:37:08.594Z,78.80
2023-06-17T02:39:36.535Z,78.90
2023-06-17T02:42:06.003Z,79.10
2023-06-17T02:44:33.957Z,79.20
2023-06-17T02:47:03.245Z,79.40
2023-06-17T02:49:31.251Z,79.60
2023-06-17T02:51:59.224Z,79.80
2023-06-17T02:54:27.601Z,79.80
2023-06-17T02:56:56.103Z,80.00
2023-06-17T02:59:24.787Z,79.80
2023-06-17T03:01:52.960Z,79.80
2023-06-17T03:04:22.416Z,80.00
2023-06-17T03:06:51.730Z,80.00
2023-06-17T03:09:20.088Z,80.10
2023-06-17T03:11:47.994Z,80.00
2023-06-17T03:14:20.440Z,79.80
2023-06-17T03:16:48.639Z,80.30
2023-06-17T03:19:16.762Z,79.80
2023-06-17T03:21:46.210Z,79.90
2023-06-17T03:24:14.138Z,79.70
2023-06-17T03:26:42.268Z,79.90
2023-06-17T03:29:10.133Z,79.80
2023-06-17T03:31:38.147Z,79.90
2023-06-17T03:34:06.092Z,80.00
2023-06-17T03:36:34.832Z,80.10
2023-06-17T03:39:04.606Z,80.30
2023-06-17T03:41:33.021Z,80.50
2023-06-17T03:44:01.382Z,80.50
2023-06-17T03:46:29.319Z,80.70
2023-06-17T03:48:57.184Z,80.90
2023-06-17T03:51:25.120Z,81.30
2023-06-17T03:53:52.992Z,81.50
2023-06-17T03:56:22.517Z,81.70
2023-06-17T03:58:51.136Z,82.10
2023-06-17T04:01:19.150Z,82.40
2023-06-17T04:03:47.193Z,82.70
2023-06-17T04:06:17.503Z,82.80
2023-06-17T04:08:45.928Z,82.90
2023-06-17T04:11:13.802Z,83.00
2023-06-17T04:13:44.697Z,83.10
2023-06-17T04:16:15.006Z,83.30
2023-06-17T04:18:42.866Z,83.60
2023-06-17T04:21:11.756Z,84.10
2023-06-17T04:23:39.696Z,84.50
2023-06-17T04:26:07.826Z,84.80
2023-06-17T04:28:35.775Z,85.30
2023-06-17T04:31:05.068Z,85.60
2023-06-17T04:33:33.048Z,85.90
2023-06-17T04:36:08.973Z,86.50
2023-06-17T04:38:37.584Z,87.00
2023-06-17T04:41:07.044Z,87.20
2023-06-17T04:43:37.864Z,87.40
2023-06-17T04:46:07.624Z,87.60
2023-06-17T04:48:38.237Z,87.20
2023-06-17T04:51:06.922Z,88.20
2023-06-17T04:53:34.783Z,88.10
2023-06-17T04:56:05.571Z,88.80
2023-06-17T04:58:33.600Z,88.80
2023-06-17T05:01:01.562Z,89.30
2023-06-17T05:03:31.972Z,89.60
2023-06-17T05:05:59.936Z,89.90
2023-06-17T05:08:27.810Z,89.90
2023-06-17T05:10:55.765Z,89.90
2023-06-17T05:13:23.698Z,90.00
2023-06-17T05:15:51.547Z,89.90
2023-06-17T05:18:19.462Z,90.10
2023-06-17T05:20:48.677Z,90.20
2023-06-17T05:23:16.521Z,90.30
2023-06-17T05:25:44.377Z,90.30
2023-06-17T05:28:13.334Z,90.30
2023-06-17T05:30:41.360Z,90.30
2023-06-17T05:33:09.424Z,90.30
2023-06-17T05:35:37.336Z,90.40
2023-06-17T05:38:06.980Z,90.30
2023-06-17T05:40:34.882Z,90.20
2023-06-17T05:43:02.921Z,90.20
2023-06-17T05:45:31.017Z,90.20
2023-06-17T05:47:58.960Z,90.10
2023-06-17T05:50:26.914Z,90.10
2023-06-17T05:52:54.825Z,90.00
2023-06-17T05:55:24.038Z,90.00
2023-06-17T05:57:53.159Z,90.00
2023-06-17T06:00:22.132Z,89.90
2023-06-17T06:02:50.310Z,89.70
2023-06-17T06:05:18.231Z,89.40
2023-06-17T06:07:46.316Z,89.50
2023-06-17T06:10:14.940Z,89.70
2023-06-17T06:12:44.278Z,89.90
2023-06-17T06:15:12.298Z,89.90
2023-06-17T06:17:40.279Z,89.40
2023-06-17T06:20:09.133Z,89.80
2023-06-17T06:22:36.974Z,90.00
2023-06-17T06:25:05.346Z,90.10
2023-06-17T06:27:33.229Z,89.30
2023-06-17T06:30:02.510Z,89.20
2023-06-17T06:32:30.587Z,90.00
2023-06-17T06:34:58.471Z,90.10
2023-06-17T06:37:26.336Z,89.90
2023-06-17T06:39:54.201Z,90.20
2023-06-17T06:42:22.215Z,90.20
2023-06-17T06:44:51.197Z,91.00
2023-06-17T06:47:20.692Z,90.80
2023-06-17T06:49:48.592Z,90.50
2023-06-17T06:52:16.524Z,90.40
2023-06-17T06:54:44.439Z,90.70
2023-06-17T06:57:12.330Z,90.50
2023-06-17T06:59:40.687Z,90.60
2023-06-17T07:02:08.594Z,90.30
2023-06-17T07:04:37.860Z,90.40
2023-06-17T07:07:05.915Z,90.50
2023-06-17T07:09:33.792Z,89.50
2023-06-17T07:12:01.758Z,88.60
2023-06-17T07:14:29.620Z,89.00
2023-06-17T07:16:57.517Z,88.80
2023-06-17T07:19:25.437Z,88.30
2023-06-17T07:21:54.787Z,88.70
2023-06-17T07:24:22.721Z,88.10
2023-06-17T07:26:50.635Z,87.70
2023-06-17T07:29:18.517Z,86.90
2023-06-17T07:31:46.478Z,86.90
2023-06-17T07:34:14.706Z,86.30
2023-06-17T07:36:42.728Z,86.10
2023-06-17T07:39:12.120Z,85.50
2023-06-17T07:41:39.981Z,85.80
2023-06-17T07:44:08.062Z,85.60
2023-06-17T07:46:35.980Z,85.20
2023-06-17T07:49:03.975Z,89.20
2023-06-17T07:51:31.853Z,89.10
2023-06-17T07:53:59.783Z,87.00
2023-06-17T07:56:29.732Z,85.50
2023-06-17T07:58:58.118Z,84.10
2023-06-17T08:01:26.457Z,82.70
2023-06-17T08:03:54.807Z,82.20
2023-06-17T08:06:23.450Z,82.50
2023-06-17T08:08:51.614Z,82.40
2023-06-17T08:11:19.963Z,81.50
2023-06-17T08:13:49.264Z,81.20
2023-06-17T08:16:17.250Z,79.70
2023-06-17T08:18:45.270Z,80.80
2023-06-17T08:21:13.165Z,80.50
2023-06-17T08:23:41.619Z,79.00
2023-06-17T08:26:09.569Z,79.00
2023-06-17T08:28:37.451Z,80.10
2023-06-17T08:31:06.860Z,78.80
2023-06-17T08:33:34.746Z,77.40
2023-06-17T08:36:02.710Z,77.60
2023-06-17T08:38:30.819Z,75.70
2023-06-17T08:40:58.687Z,74.50
2023-06-17T08:43:29.455Z,76.10
2023-06-17T08:45:59.442Z,77.30
2023-06-17T08:48:28.756Z,77.50
2023-06-17T08:50:57.023Z,75.60
2023-06-17T08:53:25.962Z,74.80
2023-06-17T08:55:53.902Z,73.20
2023-06-17T08:58:22.205Z,74.90
2023-06-17T09:00:51.700Z,71.80
2023-06-17T09:03:22.132Z,71.30
2023-06-17T09:05:53.668Z,71.60
2023-06-17T09:08:21.794Z,70.70
2023-06-17T09:10:49.634Z,72.50
2023-06-17T09:13:17.529Z,72.90
2023-06-17T09:15:45.750Z,72.00
2023-06-17T09:18:17.824Z,70.90
2023-06-17T09:20:53.080Z,70.70
2023-06-17T09:23:21.056Z,67.90
2023-06-17T09:25:49.013Z,67.80
2023-06-17T09:28:18.353Z,67.30
2023-06-17T09:30:54.465Z,67.80
2023-06-17T09:33:23.722Z,66.70
2023-06-17T09:36:01.077Z,65.60
2023-06-17T09:38:29.597Z,65.30
2023-06-17T09:40:58.064Z,64.20
2023-06-17T09:43:28.399Z,63.40
2023-06-17T09:45:58.093Z,61.50
2023-06-17T09:48:30.856Z,62.40
2023-06-17T09:51:00.865Z,63.90
2023-06-17T09:53:30.287Z,61.10
2023-06-17T09:56:01.089Z,60.10
2023-06-17T09:58:31.617Z,60.50
2023-06-17T10:01:01.680Z,59.40
2023-06-17T10:03:30.228Z,60.90
2023-06-17T10:06:04.213Z,59.80
2023-06-17T10:08:33.152Z,60.40
2023-06-17T10:11:02.227Z,60.00
2023-06-17T10:13:33.638Z,59.20
2023-06-17T10:16:02.782Z,58.70
2023-06-17T10:18:33.360Z,59.20
2023-06-17T10:21:04.453Z,57.30
2023-06-17T10:23:33.858Z,57.10
2023-06-17T10:26:02.367Z,56.70
2023-06-17T10:28:45.446Z,56.60
2023-06-17T10:31:27.395Z,55.50
2023-06-17T10:33:56.510Z,55.20
2023-06-17T10:36:26.656Z,54.80
2023-06-17T10:38:56.929Z,54.60
2023-06-17T10:41:29.898Z,54.70
2023-06-17T10:43:57.831Z,55.30
2023-06-17T10:46:27.250Z,55.10
2023-06-17T10:49:00.335Z,54.40
2023-06-17T10:51:41.447Z,53.10
2023-06-17T10:54:28.184Z,52.60
2023-06-17T10:56:56.146Z,51.50
2023-06-17T10:59:27.316Z,51.70
2023-06-17T11:02:02.193Z,52.20
2023-06-17T11:04:31.524Z,52.20
2023-06-17T11:07:01.682Z,53.10
2023-06-17T11:09:30.628Z,52.90
2023-06-17T11:11:59.699Z,52.20
2023-06-17T11:14:29.525Z,52.80
2023-06-17T11:16:57.655Z,53.30
2023-06-17T11:19:25.879Z,52.20
2023-06-17T11:21:58.385Z,52.40
2023-06-17T11:24:27.800Z,51.80
2023-06-17T11:26:56.829Z,52.30
2023-06-17T11:29:25.690Z,52.00
2023-06-17T11:31:53.648Z,52.80
2023-06-17T11:34:23.293Z,52.30
2023-06-17T11:36:54.010Z,51.90
2023-06-17T11:39:24.364Z,51.40
2023-06-17T11:41:54.326Z,51.00
2023-06-17T11:44:22.447Z,50.70
2023-06-17T11:46:51.805Z,51.40
2023-06-17T11:49:19.660Z,50.70
2023-06-17T11:51:50.407Z,50.40
2023-06-17T11:54:19.272Z,50.60
2023-06-17T11:56:47.535Z,50.10
2023-06-17T11:59:19.576Z,50.10
2023-06-17T12:01:48.085Z,49.80
2023-06-17T12:04:16.217Z,50.50
2023-06-17T12:06:44.441Z,50.30
2023-06-17T12:09:15.336Z,50.70
2023-06-17T12:11:44.644Z,51.40
2023-06-17T12:14:13.985Z,50.90
2023-06-17T12:16:44.253Z,49.60
2023-06-17T12:19:21.860Z,50.40
2023-06-17T12:21:49.819Z,51.10
2023-06-17T12:24:18.639Z,50.60
2023-06-17T12:26:46.625Z,51.30
2023-06-17T12:29:24.303Z,51.10
2023-06-17T12:31:55.046Z,51.40
2023-06-17T12:34:23.057Z,51.10
2023-06-17T12:36:51.139Z,50.80
2023-06-17T12:39:19.062Z,51.80
2023-06-17T12:41:47.054Z,50.60
2023-06-17T12:44:14.989Z,50.10
2023-06-17T12:46:43.778Z,51.40
2023-06-17T12:49:13.056Z,51.10
2023-06-17T12:51:40.939Z,51.40
2023-06-17T12:54:09.171Z,51.30
2023-06-17T12:56:37.031Z,50.80
2023-06-17T12:59:05.838Z,50.60
2023-06-17T13:01:33.912Z,50.30
2023-06-17T13:04:02.018Z,49.50
2023-06-17T13:06:31.334Z,49.10
2023-06-17T13:08:59.580Z,49.00
2023-06-17T13:11:27.494Z,48.40
2023-06-17T13:13:55.441Z,46.90
2023-06-17T13:16:23.673Z,48.10
2023-06-17T13:18:51.597Z,48.50
2023-06-17T13:21:19.481Z,48.60
2023-06-17T13:23:49.295Z,48.30
2023-06-17T13:26:18.119Z,47.50
2023-06-17T13:28:46.069Z,46.80
2023-06-17T13:31:13.959Z,44.80
2023-06-17T13:33:42.256Z,45.70
2023-06-17T13:36:10.297Z,45.80
2023-06-17T13:38:38.167Z,45.60
2023-06-17T13:41:08.674Z,44.70
2023-06-17T13:43:36.588Z,44.60
2023-06-17T13:46:05.882Z,45.30
2023-06-17T13:48:33.959Z,46.00
2023-06-17T13:51:02.106Z,46.80
2023-06-17T13:53:30.224Z,46.80
2023-06-17T13:55:58.191Z,45.80
2023-06-17T13:58:27.700Z,46.20
2023-06-17T14:00:55.758Z,46.60
2023-06-17T14:03:23.829Z,46.30
2023-06-17T14:05:51.934Z,47.40
2023-06-17T14:08:22.146Z,46.00
2023-06-17T14:10:51.761Z,46.70
2023-06-17T14:13:19.672Z,46.60
2023-06-17T14:15:48.998Z,46.90
2023-06-17T14:18:16.917Z,46.60
2023-06-17T14:20:44.808Z,47.10
2023-06-17T14:23:12.747Z,46.90
2023-06-17T14:25:40.602Z,47.90
2023-06-17T14:28:08.581Z,48.10
2023-06-17T14:30:37.437Z,47.20
2023-06-17T14:33:06.856Z,47.40
2023-06-17T14:35:34.818Z,46.90
2023-06-17T14:38:02.690Z,47.30
2023-06-17T14:40:30.549Z,46.70
2023-06-17T14:42:58.448Z,46.20
2023-06-17T14:45:28.080Z,46.80
2023-06-17T14:47:56.162Z,46.20
2023-06-17T14:50:26.302Z,45.90
2023-06-17T14:52:54.199Z,46.80
2023-06-17T14:55:22.188Z,46.50
2023-06-17T14:57:50.064Z,46.20
2023-06-17T15:00:18.116Z,46.60
2023-06-17T15:02:56.021Z,46.80
2023-06-17T15:05:28.810Z,47.00
2023-06-17T15:07:56.749Z,47.60
2023-06-17T15:10:25.099Z,47.60
2023-06-17T15:12:53.096Z,47.30
2023-06-17T15:15:21.322Z,47.20
2023-06-17T15:17:49.484Z,47.00
2023-06-17T15:20:20.650Z,47.40
2023-06-17T15:22:50.222Z,47.70
2023-06-17T15:25:18.188Z,47.50
2023-06-17T15:27:46.156Z,47.40
2023-06-17T15:30:14.425Z,47.20
2023-06-17T15:32:42.442Z,47.10
2023-06-17T15:35:11.653Z,47.20
2023-06-17T15:37:39.604Z,47.10
2023-06-17T15:40:10.209Z,47.20
2023-06-17T15:42:37.918Z,47.20
2023-06-17T15:45:07.076Z,46.80
2023-06-17T15:47:34.985Z,46.90
2023-06-17T15:50:03.168Z,46.80
2023-06-17T15:52:31.100Z,47.60
2023-06-17T15:54:59.058Z,47.40
2023-06-17T15:57:28.362Z,47.20
2023-06-17T15:59:56.334Z,47.40
2023-06-17T16:02:24.252Z,47.50
2023-06-17T16:04:54.950Z,47.40
2023-06-17T16:07:23.067Z,48.10
2023-06-17T16:09:51.509Z,47.90
2023-06-17T16:12:19.930Z,48.20
2023-06-17T16:14:49.242Z,48.00
2023-06-17T16:17:17.409Z,48.20
2023-06-17T16:19:45.492Z,48.20
2023-06-17T16:22:14.044Z,48.10
2023-06-17T16:24:44.373Z,48.70
2023-06-17T16:27:12.748Z,48.00
2023-06-17T16:29:41.112Z,48.40
2023-06-17T16:32:11.213Z,48.60
2023-06-17T16:34:39.630Z,48.60
2023-06-17T16:37:07.766Z,48.50
2023-06-17T16:39:35.720Z,48.10
2023-06-17T16:42:06.927Z,48.50
2023-06-17T16:44:36.036Z,48.00
2023-06-17T16:47:04.242Z,49.00
2023-06-17T16:49:33.523Z,49.40
2023-06-17T16:52:01.871Z,49.10
2023-06-17T16:54:29.746Z,49.80
2023-06-17T16:56:57.791Z,49.40
2023-06-17T16:59:25.745Z,49.40
2023-06-17T17:01:53.886Z,50.00
2023-06-17T17:04:21.785Z,49.80
2023-06-17T17:06:51.029Z,48.40
2023-06-17T17:09:18.919Z,48.60
2023-06-17T17:11:46.854Z,48.80
2023-06-17T17:14:15.109Z,49.20
2023-06-17T17:16:43.080Z,49.60
2023-06-17T17:19:11.157Z,49.40
2023-06-17T17:21:39.378Z,49.50
2023-06-17T17:24:15.249Z,49.80
2023-06-17T17:26:43.230Z,50.10
2023-06-17T17:29:11.503Z,50.40
2023-06-17T17:31:39.555Z,50.90
2023-06-17T17:34:07.526Z,51.20
2023-06-17T17:36:37.141Z,51.70
2023-06-17T17:39:05.269Z,51.50
2023-06-17T17:41:34.695Z,51.70
2023-06-17T17:44:02.569Z,52.50
2023-06-17T17:46:30.814Z,52.90
2023-06-17T17:48:58.732Z,52.90
2023-06-17T17:51:26.806Z,52.40
2023-06-17T17:53:55.779Z,54.00
2023-06-17T17:56:23.908Z,56.00
2023-06-17T17:58:53.152Z,57.40
2023-06-17T18:01:21.345Z,59.10
2023-06-17T18:03:49.431Z,57.90
2023-06-17T18:06:17.463Z,57.90
2023-06-17T18:08:45.381Z,58.90
2023-06-17T18:11:13.327Z,59.60
2023-06-17T18:13:41.198Z,59.80
2023-06-17T18:16:10.504Z,60.90
2023-06-17T18:18:38.396Z,62.60
2023-06-17T18:21:06.399Z,63.60
2023-06-17T18:23:34.413Z,65.10
2023-06-17T18:26:02.474Z,65.80
2023-06-17T18:28:30.349Z,66.00
2023-06-17T18:30:58.256Z,67.00
2023-06-17T18:33:27.520Z,66.40
2023-06-17T18:35:55.740Z,66.40
2023-06-17T18:38:23.740Z,67.20
2023-06-17T18:40:51.717Z,67.50
2023-06-17T18:43:21.557Z,67.70
2023-06-17T18:45:49.988Z,67.90
2023-06-17T18:48:18.080Z,68.20
2023-06-17T18:50:48.369Z,68.90
2023-06-17T18:53:16.724Z,69.20
2023-06-17T18:55:44.869Z,69.50
2023-06-17T18:58:13.010Z,69.60
2023-06-17T19:00:42.085Z,69.60
2023-06-17T19:03:10.252Z,69.20
2023-06-17T19:05:39.594Z,68.50
2023-06-17T19:08:08.969Z,67.50
2023-06-17T19:10:36.892Z,66.90
2023-06-17T19:13:04.806Z,66.30
2023-06-17T19:15:34.139Z,65.50
2023-06-17T19:18:02.281Z,65.00
2023-06-17T19:20:30.172Z,65.10
2023-06-17T19:22:58.042Z,65.40
2023-06-17T19:25:28.282Z,66.10
2023-06-17T19:27:56.308Z,66.70
2023-06-17T19:30:24.808Z,67.20
2023-06-17T19:32:53.268Z,67.30
2023-06-17T19:35:21.324Z,67.50
2023-06-17T19:37:49.278Z,67.30
2023-06-17T19:40:17.181Z,67.50
2023-06-17T19:42:46.401Z,67.30
2023-06-17T19:45:14.461Z,67.40
2023-06-17T19:47:42.497Z,67.70
2023-06-17T19:50:11.460Z,67.80
2023-06-17T19:52:39.371Z,67.50
2023-06-17T19:55:08.117Z,67.60
2023-06-17T19:57:36.024Z,67.80
2023-06-17T20:00:05.961Z,68.00
2023-06-17T20:02:33.934Z,68.50
2023-06-17T20:05:01.937Z,68.60
2023-06-17T20:07:29.808Z,68.30
2023-06-17T20:09:57.768Z,68.30
2023-06-17T20:12:25.684Z,68.20
2023-06-17T20:14:53.595Z,68.50
2023-06-17T20:17:24.240Z,68.70
2023-06-17T20:19:56.257Z,68.80
2023-06-17T20:22:24.836Z,68.90
2023-06-17T20:24:52.734Z,68.80
2023-06-17T20:27:20.611Z,68.70
2023-06-17T20:29:49.754Z,68.60
2023-06-17T20:32:20.319Z,68.40
2023-06-17T20:34:49.920Z,68.40
2023-06-17T20:37:18.415Z,68.40
2023-06-17T20:39:46.309Z,68.40
2023-06-17T20:42:14.265Z,68.40
2023-06-17T20:44:42.690Z,68.30
2023-06-17T20:47:10.862Z,68.00
2023-06-17T20:49:38.923Z,67.80
2023-06-17T20:52:08.774Z,67.80
2023-06-17T20:54:37.099Z,67.80
2023-06-17T20:57:06.064Z,67.80
2023-06-17T20:59:34.015Z,67.60
2023-06-17T21:02:01.964Z,68.20
2023-06-17T21:04:30.013Z,68.30
2023-06-17T21:06:57.959Z,67.90
2023-06-17T21:09:27.752Z,67.80
2023-06-17T21:11:55.715Z,68.00
2023-06-17T21:14:23.579Z,68.10
2023-06-17T21:16:52.378Z,68.20
2023-06-17T21:19:20.615Z,68.40
2023-06-17T21:21:48.842Z,68.40
2023-06-17T21:24:16.822Z,68.60
2023-06-17T21:26:46.099Z,68.80
2023-06-17T21:29:14.023Z,69.00
2023-06-17T21:31:41.889Z,69.00
2023-06-17T21:34:09.771Z,69.10
2023-06-17T21:36:38.928Z,69.10
2023-06-17T21:39:06.784Z,69.30
2023-06-17T21:41:34.786Z,69.20
2023-06-17T21:44:04.101Z,69.20
2023-06-17T21:46:33.004Z,69.40
2023-06-17T21:49:00.960Z,69.40
2023-06-17T21:51:28.965Z,69.40
2023-06-17T21:53:57.110Z,69.50
2023-06-17T21:56:25.145Z,69.50
2023-06-17T21:58:53.016Z,69.50
2023-06-17T22:01:22.348Z,69.60
2023-06-17T22:03:50.543Z,69.80
2023-06-17T22:06:18.506Z,70.00
2023-06-17T22:08:46.396Z,70.00
2023-06-17T22:11:14.308Z,70.10
2023-06-17T22:13:42.304Z,70.20
2023-06-17T22:16:12.382Z,70.40
2023-06-17T22:18:41.703Z,70.70
2023-06-17T22:21:09.734Z,70.60
2023-06-17T22:23:37.624Z,70.60
2023-06-17T22:26:05.651Z,70.60
2023-06-17T22:28:33.515Z,70.60
2023-06-17T22:31:01.364Z,70.70
2023-06-17T22:33:29.418Z,70.70
2023-06-17T22:35:58.832Z,71.10
2023-06-17T22:38:26.761Z,70.70
2023-06-17T22:40:54.628Z,70.80
2023-06-17T22:43:22.529Z,70.90
2023-06-17T22:45:50.480Z,70.90
2023-06-17T22:48:18.367Z,71.10
2023-06-17T22:50:46.564Z,71.30
2023-06-17T22:53:15.836Z,71.60
2023-06-17T22:55:43.798Z,71.80
2023-06-17T22:58:11.809Z,72.70
2023-06-17T23:00:39.887Z,72.30
2023-06-17T23:03:08.073Z,72.40
2023-06-17T23:05:36.160Z,72.40
2023-06-17T23:08:05.255Z,72.50
2023-06-17T23:10:36.308Z,72.60
2023-06-17T23:13:04.352Z,72.60
2023-06-17T23:15:32.234Z,72.80
2023-06-17T23:18:00.188Z,73.00
2023-06-17T23:20:28.265Z,73.10
2023-06-17T23:22:56.164Z,73.30
2023-06-17T23:25:27.845Z,73.40
2023-06-17T23:27:57.864Z,73.60
2023-06-17T23:30:26.501Z,73.70
2023-06-17T23:32:54.454Z,73.80
2023-06-17T23:35:22.522Z,73.90
2023-06-17T23:37:50.660Z,73.70
2023-06-17T23:40:18.694Z,73.90
2023-06-17T23:42:46.699Z,73.80
2023-06-17T23:45:16.352Z,73.80
2023-06-17T23:47:44.349Z,73.90
2023-06-17T23:50:12.353Z,74.00
2023-06-17T23:52:40.210Z,74.10
2023-06-17T23:55:08.558Z,74.20
2023-06-17T23:57:36.464Z,74.20
